Terminal Aerodrome Forecast
Issued by NWS Jackson, MS

Home | Current Version | Previous Version | Text Only | Print | Product List | Glossary On
Versions: 1 2 3 4 5 6 7 8 9 10 11 12 13 14
000
FTUS44 KJAN 221100 RRA
TAFGWO
TAF
KGWO 221145Z 2212/2312 16009KT P6SM OVC007
     FM221600 17013G18KT P6SM VCSH OVC010
     FM230000 19010KT 5SM -RA BR VCTS BKN007 OVC030CB
     FM230800 32005KT 6SM BR OVC015=

USA.gov is the U.S. government's official web portal to all federal, state and local government web resources and services.